createdAt,value
2022-09-11T00:00:00.490Z,976.33
2022-09-11T00:01:00.409Z,976.36
2022-09-11T00:02:00.365Z,976.33
2022-09-11T00:03:00.334Z,976.32
2022-09-11T00:04:00.177Z,976.32
2022-09-11T00:05:00.103Z,976.33
2022-09-11T00:06:00.030Z,976.28
2022-09-11T00:06:59.946Z,976.29
2022-09-11T00:07:59.873Z,976.27
2022-09-11T00:08:59.793Z,976.29
2022-09-11T00:09:59.712Z,976.26
2022-09-11T00:10:59.636Z,976.28
2022-09-11T00:11:59.560Z,976.28
2022-09-11T00:12:59.482Z,976.21
2022-09-11T00:13:59.402Z,976.22
2022-09-11T00:14:59.335Z,976.29
2022-09-11T00:15:59.281Z,976.29
2022-09-11T00:16:59.171Z,976.23
2022-09-11T00:17:59.095Z,976.23
2022-09-11T00:18:59.017Z,976.24
2022-09-11T00:19:58.937Z,976.21
2022-09-11T00:20:58.859Z,976.21
2022-09-11T00:21:58.789Z,976.22
2022-09-11T00:22:58.706Z,976.19
2022-09-11T00:23:58.635Z,976.19
2022-09-11T00:24:58.552Z,976.21
2022-09-11T00:25:58.475Z,976.25
2022-09-11T00:26:58.393Z,976.22
2022-09-11T00:27:58.322Z,976.24
2022-09-11T00:28:58.247Z,976.25
2022-09-11T00:29:58.163Z,976.23
2022-09-11T00:30:58.132Z,976.19
2022-09-11T00:31:58.007Z,976.23
2022-09-11T00:32:57.929Z,976.23
2022-09-11T00:33:57.862Z,976.23
2022-09-11T00:34:57.776Z,976.23
2022-09-11T00:35:57.698Z,976.22
2022-09-11T00:36:57.618Z,976.21
2022-09-11T00:37:57.548Z,976.27
2022-09-11T00:38:57.465Z,976.27
2022-09-11T00:39:57.437Z,976.23
2022-09-11T00:40:57.308Z,976.22
2022-09-11T00:41:57.233Z,976.26
2022-09-11T00:42:57.153Z,976.30
2022-09-11T00:43:57.078Z,976.28
2022-09-11T00:44:57.001Z,976.26
2022-09-11T00:45:56.948Z,976.26
2022-09-11T00:46:56.846Z,976.26
2022-09-11T00:47:56.765Z,976.25
2022-09-11T00:48:56.693Z,976.25
2022-09-11T00:49:56.614Z,976.20
2022-09-11T00:50:56.533Z,976.22
2022-09-11T00:51:56.455Z,976.22
2022-09-11T00:52:56.379Z,976.19
2022-09-11T00:53:56.303Z,976.24
2022-09-11T00:54:56.225Z,976.19
2022-09-11T00:55:56.148Z,976.18
2022-09-11T00:56:56.068Z,976.18
2022-09-11T00:57:55.989Z,976.18
2022-09-11T00:58:55.914Z,976.16
2022-09-11T00:59:55.842Z,976.19
2022-09-11T01:00:55.799Z,976.17
2022-09-11T01:01:55.728Z,976.13
2022-09-11T01:02:55.601Z,976.10
2022-09-11T01:03:55.527Z,976.14
2022-09-11T01:04:55.448Z,976.10
2022-09-11T01:05:55.374Z,976.07
2022-09-11T01:06:55.292Z,976.12
2022-09-11T01:07:55.216Z,976.11
2022-09-11T01:08:55.137Z,976.09
2022-09-11T01:09:55.066Z,976.10
2022-09-11T01:10:54.979Z,976.13
2022-09-11T01:11:54.912Z,976.13
2022-09-11T01:12:54.829Z,976.11
2022-09-11T01:13:54.750Z,976.11
2022-09-11T01:14:54.672Z,976.14
2022-09-11T01:15:54.637Z,976.10
2022-09-11T01:16:54.515Z,976.12
2022-09-11T01:17:54.444Z,976.12
2022-09-11T01:18:54.365Z,976.10
2022-09-11T01:19:54.289Z,976.11
2022-09-11T01:20:54.211Z,976.11
2022-09-11T01:21:54.126Z,976.11
2022-09-11T01:22:54.048Z,976.12
2022-09-11T01:23:53.977Z,976.12
2022-09-11T01:24:53.893Z,976.13
2022-09-11T01:25:53.817Z,976.08
2022-09-11T01:26:53.742Z,976.10
2022-09-11T01:27:53.664Z,976.08
2022-09-11T01:28:53.585Z,976.06
2022-09-11T01:29:53.518Z,976.05
2022-09-11T01:30:53.435Z,976.07
2022-09-11T01:31:53.356Z,976.05
2022-09-11T01:32:53.279Z,976.10
2022-09-11T01:33:53.203Z,976.06
2022-09-11T01:34:53.118Z,976.10
2022-09-11T01:35:53.045Z,976.08
2022-09-11T01:36:52.961Z,976.08
2022-09-11T01:37:52.886Z,976.06
2022-09-11T01:38:52.809Z,976.04
2022-09-11T01:39:52.744Z,976.05
2022-09-11T01:40:52.651Z,976.04
2022-09-11T01:41:52.575Z,976.03
2022-09-11T01:42:52.495Z,976.04
2022-09-11T01:43:52.426Z,976.00
2022-09-11T01:44:52.345Z,976.01
2022-09-11T01:45:52.428Z,976.04
2022-09-11T01:46:52.192Z,976.03
2022-09-11T01:47:52.112Z,976.02
2022-09-11T01:48:52.037Z,975.97
2022-09-11T01:49:51.959Z,975.98
2022-09-11T01:50:51.876Z,975.96
2022-09-11T01:51:51.802Z,975.93
2022-09-11T01:52:51.726Z,975.92
2022-09-11T01:53:51.834Z,975.93
2022-09-11T01:54:51.563Z,975.93
2022-09-11T01:55:51.493Z,975.87
2022-09-11T01:56:51.420Z,975.92
2022-09-11T01:57:51.341Z,975.86
2022-09-11T01:58:51.258Z,975.83
2022-09-11T01:59:51.186Z,975.91
2022-09-11T02:00:51.146Z,975.93
2022-09-11T02:01:51.067Z,975.92
2022-09-11T02:02:50.951Z,975.93
2022-09-11T02:03:50.869Z,975.86
2022-09-11T02:04:50.795Z,975.84
2022-09-11T02:05:50.718Z,975.87
2022-09-11T02:06:50.641Z,975.87
2022-09-11T02:07:50.558Z,975.93
2022-09-11T02:08:50.479Z,975.89
2022-09-11T02:09:50.409Z,975.86
2022-09-11T02:10:50.328Z,975.82
2022-09-11T02:11:50.250Z,975.83
2022-09-11T02:12:50.172Z,975.77
2022-09-11T02:13:50.098Z,975.81
2022-09-11T02:14:50.020Z,975.75
2022-09-11T02:15:49.947Z,975.77
2022-09-11T02:16:49.863Z,975.75
2022-09-11T02:17:49.793Z,975.73
2022-09-11T02:18:49.702Z,975.80
2022-09-11T02:19:49.637Z,975.83
2022-09-11T02:20:49.552Z,975.81
2022-09-11T02:21:49.473Z,975.74
2022-09-11T02:22:49.399Z,975.77
2022-09-11T02:23:49.324Z,975.82
2022-09-11T02:24:49.240Z,975.76
2022-09-11T02:25:49.166Z,975.77
2022-09-11T02:26:49.081Z,975.75
2022-09-11T02:27:49.007Z,975.73
2022-09-11T02:28:48.932Z,975.70
2022-09-11T02:29:48.853Z,975.69
2022-09-11T02:30:48.773Z,975.72
2022-09-11T02:31:48.768Z,975.68
2022-09-11T02:32:48.620Z,975.70
2022-09-11T02:33:48.541Z,975.65
2022-09-11T02:34:48.461Z,975.68
2022-09-11T02:35:48.384Z,975.67
2022-09-11T02:36:48.311Z,975.66
2022-09-11T02:37:48.235Z,975.57
2022-09-11T02:38:48.156Z,975.66
2022-09-11T02:39:48.155Z,975.61
2022-09-11T02:40:47.998Z,975.62
2022-09-11T02:41:47.920Z,975.61
2022-09-11T02:42:47.840Z,975.63
2022-09-11T02:43:47.769Z,975.60
2022-09-11T02:44:47.689Z,975.62
2022-09-11T02:45:47.653Z,975.59
2022-09-11T02:46:47.535Z,975.61
2022-09-11T02:47:47.457Z,975.62
2022-09-11T02:48:47.380Z,975.66
2022-09-11T02:49:47.301Z,975.65
2022-09-11T02:50:47.221Z,975.65
2022-09-11T02:51:47.143Z,975.60
2022-09-11T02:52:47.069Z,975.66
2022-09-11T02:53:46.990Z,975.62
2022-09-11T02:54:46.911Z,975.61
2022-09-11T02:55:46.832Z,975.63
2022-09-11T02:56:46.754Z,975.61
2022-09-11T02:57:46.680Z,975.67
2022-09-11T02:58:46.606Z,975.69
2022-09-11T02:59:46.525Z,975.64
2022-09-11T03:00:46.486Z,975.64
2022-09-11T03:01:46.405Z,975.66
2022-09-11T03:02:46.288Z,975.67
2022-09-11T03:03:46.562Z,975.65
2022-09-11T03:04:46.133Z,975.68
2022-09-11T03:05:46.055Z,975.64
2022-09-11T03:06:45.976Z,975.70
2022-09-11T03:07:45.905Z,975.66
2022-09-11T03:08:45.825Z,975.68
2022-09-11T03:09:45.749Z,975.66
2022-09-11T03:10:45.670Z,975.65
2022-09-11T03:11:45.596Z,975.67
2022-09-11T03:12:45.516Z,975.67
2022-09-11T03:13:45.434Z,975.68
2022-09-11T03:14:45.358Z,975.66
2022-09-11T03:15:45.281Z,975.67
2022-09-11T03:16:45.208Z,975.66
2022-09-11T03:17:45.127Z,975.64
2022-09-11T03:18:45.048Z,975.64
2022-09-11T03:19:44.970Z,975.67
2022-09-11T03:20:44.889Z,975.62
2022-09-11T03:21:44.817Z,975.65
2022-09-11T03:22:44.740Z,975.63
2022-09-11T03:23:44.657Z,975.68
2022-09-11T03:24:44.585Z,975.67
2022-09-11T03:25:44.506Z,975.67
2022-09-11T03:26:44.428Z,975.67
2022-09-11T03:27:44.352Z,975.67
2022-09-11T03:28:44.268Z,975.66
2022-09-11T03:29:44.192Z,975.68
2022-09-11T03:30:44.117Z,975.67
2022-09-11T03:31:44.067Z,975.69
2022-09-11T03:32:43.957Z,975.68
2022-09-11T03:33:43.957Z,975.67
2022-09-11T03:34:43.804Z,975.67
2022-09-11T03:35:43.731Z,975.68
2022-09-11T03:36:43.645Z,975.67
2022-09-11T03:37:43.574Z,975.65
2022-09-11T03:38:43.491Z,975.67
2022-09-11T03:39:43.499Z,975.65
2022-09-11T03:40:43.337Z,975.65
2022-09-11T03:41:43.261Z,975.63
2022-09-11T03:42:43.181Z,975.68
2022-09-11T03:43:43.257Z,975.64
2022-09-11T03:44:43.030Z,975.67
2022-09-11T03:45:42.984Z,975.65
2022-09-11T03:46:42.879Z,975.66
2022-09-11T03:47:42.799Z,975.67
2022-09-11T03:48:42.716Z,975.68
2022-09-11T03:49:42.641Z,975.67
2022-09-11T03:50:42.572Z,975.67
2022-09-11T03:51:42.483Z,975.65
2022-09-11T03:52:42.408Z,975.69
2022-09-11T03:53:42.370Z,975.70
2022-09-11T03:54:42.250Z,975.74
2022-09-11T03:55:42.180Z,975.69
2022-09-11T03:56:42.099Z,975.75
2022-09-11T03:57:42.020Z,975.71
2022-09-11T03:58:41.939Z,975.72
2022-09-11T03:59:41.869Z,975.73
2022-09-11T04:00:41.820Z,975.71
2022-09-11T04:01:41.720Z,975.76
2022-09-11T04:02:41.628Z,975.76
2022-09-11T04:03:41.664Z,975.74
2022-09-11T04:04:41.481Z,975.70
2022-09-11T04:05:41.399Z,975.69
2022-09-11T04:06:41.320Z,975.73
2022-09-11T04:07:41.244Z,975.75
2022-09-11T04:08:41.174Z,975.75
2022-09-11T04:09:41.087Z,975.74
2022-09-11T04:10:41.011Z,975.78
2022-09-11T04:11:40.933Z,975.79
2022-09-11T04:12:40.854Z,975.79
2022-09-11T04:13:40.860Z,975.81
2022-09-11T04:14:40.702Z,975.81
2022-09-11T04:15:40.626Z,975.81
2022-09-11T04:16:40.613Z,975.82
2022-09-11T04:17:40.474Z,975.86
2022-09-11T04:18:40.395Z,975.84
2022-09-11T04:19:40.311Z,975.87
2022-09-11T04:20:40.236Z,975.89
2022-09-11T04:21:40.158Z,975.89
2022-09-11T04:22:40.081Z,975.88
2022-09-11T04:23:40.098Z,975.88
2022-09-11T04:24:39.929Z,975.87
2022-09-11T04:25:39.847Z,975.91
2022-09-11T04:26:39.767Z,975.92
2022-09-11T04:27:39.689Z,975.94
2022-09-11T04:28:39.615Z,975.92
2022-09-11T04:29:39.536Z,975.92
2022-09-11T04:30:39.461Z,975.94
2022-09-11T04:31:39.385Z,975.97
2022-09-11T04:32:39.307Z,975.97
2022-09-11T04:33:39.227Z,975.99
2022-09-11T04:34:39.148Z,975.98
2022-09-11T04:35:39.073Z,976.04
2022-09-11T04:36:38.998Z,976.04
2022-09-11T04:37:38.917Z,976.04
2022-09-11T04:38:38.836Z,976.03
2022-09-11T04:39:38.828Z,976.04
2022-09-11T04:40:38.682Z,976.01
2022-09-11T04:41:38.606Z,976.06
2022-09-11T04:42:38.533Z,976.04
2022-09-11T04:43:38.498Z,976.04
2022-09-11T04:44:38.373Z,976.05
2022-09-11T04:45:38.340Z,976.05
2022-09-11T04:46:38.222Z,976.05
2022-09-11T04:47:38.143Z,976.07
2022-09-11T04:48:38.068Z,976.08
2022-09-11T04:49:37.986Z,976.10
2022-09-11T04:50:37.909Z,976.12
2022-09-11T04:51:37.837Z,976.14
2022-09-11T04:52:37.759Z,976.10
2022-09-11T04:53:37.678Z,976.17
2022-09-11T04:54:37.597Z,976.19
2022-09-11T04:55:37.522Z,976.20
2022-09-11T04:56:37.447Z,976.29
2022-09-11T04:57:37.363Z,976.26
2022-09-11T04:58:37.291Z,976.25
2022-09-11T04:59:37.216Z,976.26
2022-09-11T05:00:37.137Z,976.28
2022-09-11T05:01:37.059Z,976.27
2022-09-11T05:02:36.985Z,976.31
2022-09-11T05:03:36.897Z,976.31
2022-09-11T05:04:36.827Z,976.38
2022-09-11T05:05:36.750Z,976.36
2022-09-11T05:06:36.669Z,976.33
2022-09-11T05:07:36.591Z,976.38
2022-09-11T05:08:36.512Z,976.35
2022-09-11T05:09:36.433Z,976.36
2022-09-11T05:10:36.358Z,976.37
2022-09-11T05:11:36.295Z,976.40
2022-09-11T05:12:36.202Z,976.38
2022-09-11T05:13:36.699Z,976.44
2022-09-11T05:14:36.046Z,976.48
2022-09-11T05:15:35.977Z,976.46
2022-09-11T05:16:35.941Z,976.50
2022-09-11T05:17:35.819Z,976.42
2022-09-11T05:18:35.737Z,976.50
2022-09-11T05:19:35.660Z,976.44
2022-09-11T05:20:35.587Z,976.49
2022-09-11T05:21:35.504Z,976.48
2022-09-11T05:22:35.429Z,976.49
2022-09-11T05:23:35.355Z,976.52
2022-09-11T05:24:35.277Z,976.53
2022-09-11T05:25:35.194Z,976.54
2022-09-11T05:26:35.131Z,976.63
2022-09-11T05:27:35.045Z,976.59
2022-09-11T05:28:34.967Z,976.56
2022-09-11T05:29:34.887Z,976.59
2022-09-11T05:30:34.809Z,976.60
2022-09-11T05:31:34.780Z,976.60
2022-09-11T05:32:34.656Z,976.64
2022-09-11T05:33:34.578Z,976.65
2022-09-11T05:34:34.501Z,976.67
2022-09-11T05:35:34.928Z,976.67
2022-09-11T05:36:34.349Z,976.68
2022-09-11T05:37:34.272Z,976.66
2022-09-11T05:38:34.194Z,976.69
2022-09-11T05:39:34.116Z,976.73
2022-09-11T05:40:34.035Z,976.76
2022-09-11T05:41:33.962Z,976.76
2022-09-11T05:42:33.879Z,976.77
2022-09-11T05:43:33.814Z,976.78
2022-09-11T05:44:33.728Z,976.79
2022-09-11T05:45:33.699Z,976.83
2022-09-11T05:46:33.570Z,976.84
2022-09-11T05:47:33.506Z,976.87
2022-09-11T05:48:33.421Z,976.89
2022-09-11T05:49:33.341Z,976.89
2022-09-11T05:50:33.274Z,976.89
2022-09-11T05:51:33.190Z,976.89
2022-09-11T05:52:33.108Z,976.92
2022-09-11T05:53:33.031Z,976.89
2022-09-11T05:54:32.956Z,976.95
2022-09-11T05:55:32.874Z,976.97
2022-09-11T05:56:32.801Z,976.96
2022-09-11T05:57:32.723Z,976.98
2022-09-11T05:58:32.651Z,976.99
2022-09-11T05:59:32.572Z,976.99
2022-09-11T06:00:32.492Z,977.03
2022-09-11T06:01:32.462Z,977.01
2022-09-11T06:02:32.353Z,977.02
2022-09-11T06:03:32.255Z,977.04
2022-09-11T06:04:32.182Z,977.08
2022-09-11T06:05:32.106Z,977.06
2022-09-11T06:06:32.021Z,977.07
2022-09-11T06:07:31.949Z,977.06
2022-09-11T06:08:31.876Z,977.06
2022-09-11T06:09:31.791Z,977.09
2022-09-11T06:10:31.715Z,977.08
2022-09-11T06:11:31.636Z,977.09
2022-09-11T06:12:31.565Z,977.11
2022-09-11T06:13:31.490Z,977.14
2022-09-11T06:14:31.409Z,977.12
2022-09-11T06:15:46.250Z,977.13
2022-09-11T06:16:31.276Z,977.16
2022-09-11T06:17:31.172Z,977.14
2022-09-11T06:18:31.097Z,977.15
2022-09-11T06:19:31.019Z,977.14
2022-09-11T06:20:30.947Z,977.17
2022-09-11T06:21:30.866Z,977.15
2022-09-11T06:22:30.786Z,977.16
2022-09-11T06:23:30.706Z,977.17
2022-09-11T06:24:30.630Z,977.21
2022-09-11T06:25:30.552Z,977.25
2022-09-11T06:26:30.474Z,977.26
2022-09-11T06:27:30.399Z,977.28
2022-09-11T06:28:30.322Z,977.27
2022-09-11T06:29:30.242Z,977.28
2022-09-11T06:30:30.208Z,977.31
2022-09-11T06:31:30.093Z,977.31
2022-09-11T06:32:30.015Z,977.34
2022-09-11T06:33:29.939Z,977.36
2022-09-11T06:34:29.861Z,977.35
2022-09-11T06:35:29.781Z,977.42
2022-09-11T06:36:29.705Z,977.40
2022-09-11T06:37:29.628Z,977.42
2022-09-11T06:38:29.550Z,977.42
2022-09-11T06:39:29.469Z,977.44
2022-09-11T06:40:29.395Z,977.45
2022-09-11T06:41:29.319Z,977.47
2022-09-11T06:42:29.239Z,977.46
2022-09-11T06:43:29.160Z,977.48
2022-09-11T06:44:29.086Z,977.47
2022-09-11T06:45:29.013Z,977.49
2022-09-11T06:46:28.928Z,977.50
2022-09-11T06:47:28.856Z,977.54
2022-09-11T06:48:28.774Z,977.55
2022-09-11T06:49:28.697Z,977.50
2022-09-11T06:50:28.624Z,977.49
2022-09-11T06:51:28.550Z,977.54
2022-09-11T06:52:28.464Z,977.55
2022-09-11T06:53:28.387Z,977.55
2022-09-11T06:54:28.318Z,977.58
2022-09-11T06:55:28.230Z,977.63
2022-09-11T06:56:28.160Z,977.62
2022-09-11T06:57:28.076Z,977.62
2022-09-11T06:58:28.001Z,977.63
2022-09-11T06:59:27.922Z,977.64
2022-09-11T07:00:27.848Z,977.68
2022-09-11T07:01:27.846Z,977.68
2022-09-11T07:02:27.692Z,977.69
2022-09-11T07:03:27.617Z,977.72
2022-09-11T07:04:27.539Z,977.72
2022-09-11T07:05:27.464Z,977.71
2022-09-11T07:06:27.384Z,977.72
2022-09-11T07:07:27.307Z,977.76
2022-09-11T07:08:27.231Z,977.76
2022-09-11T07:09:27.150Z,977.76
2022-09-11T07:10:27.075Z,977.76
2022-09-11T07:11:26.996Z,977.79
2022-09-11T07:12:26.920Z,977.77
2022-09-11T07:13:26.843Z,977.79
2022-09-11T07:14:26.768Z,977.79
2022-09-11T07:15:26.689Z,977.79
2022-09-11T07:16:26.625Z,977.81
2022-09-11T07:17:26.537Z,977.82
2022-09-11T07:18:26.456Z,977.85
2022-09-11T07:19:26.380Z,977.83
2022-09-11T07:20:26.303Z,977.85
2022-09-11T07:21:26.224Z,977.85
2022-09-11T07:22:26.143Z,977.89
2022-09-11T07:23:26.065Z,977.91
2022-09-11T07:24:25.989Z,977.92
2022-09-11T07:25:25.914Z,977.90
2022-09-11T07:26:25.844Z,977.97
2022-09-11T07:27:25.757Z,977.94
2022-09-11T07:28:25.685Z,977.96
2022-09-11T07:29:25.606Z,978.00
2022-09-11T07:30:25.567Z,977.97
2022-09-11T07:31:25.455Z,978.00
2022-09-11T07:32:25.374Z,978.00
2022-09-11T07:33:25.296Z,978.04
2022-09-11T07:34:25.217Z,978.07
2022-09-11T07:35:25.148Z,978.06
2022-09-11T07:36:25.068Z,978.08
2022-09-11T07:37:24.987Z,978.09
2022-09-11T07:38:24.910Z,978.08
2022-09-11T07:39:24.835Z,978.14
2022-09-11T07:40:24.757Z,978.13
2022-09-11T07:41:24.679Z,978.16
2022-09-11T07:42:24.606Z,978.14
2022-09-11T07:43:24.527Z,978.16
2022-09-11T07:44:24.449Z,978.19
2022-09-11T07:45:24.371Z,978.21
2022-09-11T07:46:24.292Z,978.23
2022-09-11T07:47:24.215Z,978.26
2022-09-11T07:48:24.142Z,978.29
2022-09-11T07:49:24.060Z,978.26
2022-09-11T07:50:23.988Z,978.31
2022-09-11T07:51:23.931Z,978.30
2022-09-11T07:52:23.833Z,978.30
2022-09-11T07:53:23.750Z,978.31
2022-09-11T07:54:23.673Z,978.32
2022-09-11T07:55:23.606Z,978.35
2022-09-11T07:56:23.521Z,978.36
2022-09-11T07:57:23.447Z,978.37
2022-09-11T07:58:23.365Z,978.40
2022-09-11T07:59:23.291Z,978.39
2022-09-11T08:00:23.213Z,978.42
2022-09-11T08:01:23.178Z,978.41
2022-09-11T08:02:23.122Z,978.42
2022-09-11T08:03:22.987Z,978.39
2022-09-11T08:04:22.904Z,978.40
2022-09-11T08:05:22.829Z,978.45
2022-09-11T08:06:22.749Z,978.49
2022-09-11T08:07:22.673Z,978.48
2022-09-11T08:08:22.596Z,978.49
2022-09-11T08:09:22.516Z,978.45
2022-09-11T08:10:27.712Z,978.47
2022-09-11T08:11:22.365Z,978.46
2022-09-11T08:12:22.286Z,978.46
2022-09-11T08:13:22.212Z,978.50
2022-09-11T08:14:22.134Z,978.54
2022-09-11T08:15:22.058Z,978.51
2022-09-11T08:16:22.020Z,978.56
2022-09-11T08:17:21.903Z,978.55
2022-09-11T08:18:21.825Z,978.56
2022-09-11T08:19:21.753Z,978.55
2022-09-11T08:20:21.678Z,978.57
2022-09-11T08:21:21.597Z,978.61
2022-09-11T08:22:21.515Z,978.62
2022-09-11T08:23:21.446Z,978.68
2022-09-11T08:24:21.364Z,978.68
2022-09-11T08:25:21.289Z,978.71
2022-09-11T08:26:21.210Z,978.72
2022-09-11T08:27:21.132Z,978.74
2022-09-11T08:28:21.065Z,978.78
2022-09-11T08:29:20.983Z,978.79
2022-09-11T08:30:20.902Z,978.80
2022-09-11T08:31:20.856Z,978.83
2022-09-11T08:32:20.746Z,978.82
2022-09-11T08:33:20.677Z,978.82
2022-09-11T08:34:20.610Z,978.86
2022-09-11T08:35:20.521Z,978.88
2022-09-11T08:36:20.440Z,978.88
2022-09-11T08:37:20.368Z,978.93
2022-09-11T08:38:20.291Z,978.93
2022-09-11T08:39:20.216Z,978.90
2022-09-11T08:40:20.135Z,978.93
2022-09-11T08:41:20.057Z,978.93
2022-09-11T08:42:19.983Z,978.97
2022-09-11T08:43:19.905Z,978.94
2022-09-11T08:44:19.831Z,978.97
2022-09-11T08:45:19.753Z,978.95
2022-09-11T08:46:19.670Z,978.93
2022-09-11T08:47:19.599Z,978.96
2022-09-11T08:48:19.529Z,978.94
2022-09-11T08:49:19.446Z,978.99
2022-09-11T08:50:19.367Z,978.98
2022-09-11T08:51:19.291Z,978.95
2022-09-11T08:52:19.208Z,979.00
2022-09-11T08:53:19.138Z,978.99
2022-09-11T08:54:19.055Z,978.95
2022-09-11T08:55:18.984Z,978.97
2022-09-11T08:56:18.909Z,978.96
2022-09-11T08:57:18.830Z,979.02
2022-09-11T08:58:18.749Z,979.02
2022-09-11T08:59:18.676Z,979.02
2022-09-11T09:00:18.653Z,979.04
2022-09-11T09:01:22.131Z,979.08
2022-09-11T09:02:18.501Z,979.06
2022-09-11T09:03:18.372Z,979.09
2022-09-11T09:04:18.293Z,979.08
2022-09-11T09:05:18.216Z,979.16
2022-09-11T09:06:18.140Z,979.13
2022-09-11T09:07:18.061Z,979.11
2022-09-11T09:08:17.983Z,979.16
2022-09-11T09:09:17.909Z,979.11
2022-09-11T09:10:17.869Z,979.14
2022-09-11T09:11:17.758Z,979.17
2022-09-11T09:12:17.675Z,979.18
2022-09-11T09:13:17.600Z,979.21
2022-09-11T09:14:17.524Z,979.23
2022-09-11T09:15:17.448Z,979.22
2022-09-11T09:16:17.389Z,979.24
2022-09-11T09:17:17.292Z,979.24
2022-09-11T09:18:17.219Z,979.28
2022-09-11T09:19:17.143Z,979.27
2022-09-11T09:20:17.105Z,979.25
2022-09-11T09:21:16.992Z,979.26
2022-09-11T09:22:16.910Z,979.29
2022-09-11T09:23:16.838Z,979.27
2022-09-11T09:24:16.761Z,979.25
2022-09-11T09:25:16.682Z,979.29
2022-09-11T09:26:16.602Z,979.26
2022-09-11T09:27:16.528Z,979.28
2022-09-11T09:28:16.453Z,979.23
2022-09-11T09:29:16.374Z,979.23
2022-09-11T09:30:16.300Z,979.25
2022-09-11T09:31:16.259Z,979.28
2022-09-11T09:32:16.143Z,979.28
2022-09-11T09:33:16.068Z,979.27
2022-09-11T09:34:15.985Z,979.23
2022-09-11T09:35:15.914Z,979.27
2022-09-11T09:36:15.836Z,979.25
2022-09-11T09:37:15.760Z,979.22
2022-09-11T09:38:18.575Z,979.24
2022-09-11T09:39:15.608Z,979.28
2022-09-11T09:40:15.577Z,979.31
2022-09-11T09:41:15.462Z,979.32
2022-09-11T09:42:15.377Z,979.34
2022-09-11T09:43:15.306Z,979.36
2022-09-11T09:44:19.410Z,979.34
2022-09-11T09:45:15.150Z,979.35
2022-09-11T09:46:15.097Z,979.31
2022-09-11T09:47:14.996Z,979.34
2022-09-11T09:48:14.920Z,979.36
2022-09-11T09:49:14.845Z,979.38
2022-09-11T09:50:14.768Z,979.38
2022-09-11T09:51:14.689Z,979.37
2022-09-11T09:52:14.616Z,979.38
2022-09-11T09:53:14.538Z,979.38
2022-09-11T09:54:14.467Z,979.37
2022-09-11T09:55:14.387Z,979.40
2022-09-11T09:56:14.310Z,979.41
2022-09-11T09:57:14.234Z,979.38
2022-09-11T09:58:14.154Z,979.39
2022-09-11T09:59:14.082Z,979.37
2022-09-11T10:00:14.005Z,979.35
2022-09-11T10:01:17.934Z,979.37
2022-09-11T10:02:13.897Z,979.34
2022-09-11T10:03:13.777Z,979.40
2022-09-11T10:04:13.704Z,979.34
2022-09-11T10:05:13.626Z,979.36
2022-09-11T10:06:13.546Z,979.33
2022-09-11T10:07:13.472Z,979.36
2022-09-11T10:08:13.395Z,979.32
2022-09-11T10:09:13.319Z,979.34
2022-09-11T10:10:13.248Z,979.38
2022-09-11T10:11:13.166Z,979.36
2022-09-11T10:12:13.089Z,979.35
2022-09-11T10:13:20.076Z,979.35
2022-09-11T10:14:24.481Z,979.35
2022-09-11T10:15:12.861Z,979.34
2022-09-11T10:16:12.812Z,979.30
2022-09-11T10:17:12.716Z,979.33
2022-09-11T10:18:12.630Z,979.32
2022-09-11T10:19:12.562Z,979.32
2022-09-11T10:20:12.480Z,979.33
2022-09-11T10:21:12.410Z,979.30
2022-09-11T10:22:12.328Z,979.37
2022-09-11T10:23:12.255Z,979.34
2022-09-11T10:24:12.176Z,979.34
2022-09-11T10:25:12.101Z,979.35
2022-09-11T10:26:12.028Z,979.35
2022-09-11T10:27:11.953Z,979.34
2022-09-11T10:28:11.876Z,979.38
2022-09-11T10:29:11.801Z,979.34
2022-09-11T10:30:11.723Z,979.33
2022-09-11T10:31:11.699Z,979.34
2022-09-11T10:32:11.571Z,979.39
2022-09-11T10:33:11.500Z,979.35
2022-09-11T10:34:11.420Z,979.41
2022-09-11T10:35:11.351Z,979.38
2022-09-11T10:36:11.266Z,979.38
2022-09-11T10:37:11.195Z,979.39
2022-09-11T10:38:11.125Z,979.43
2022-09-11T10:39:11.043Z,979.40
2022-09-11T10:40:10.998Z,979.41
2022-09-11T10:41:10.890Z,979.41
2022-09-11T10:42:10.813Z,979.47
2022-09-11T10:43:10.736Z,979.48
2022-09-11T10:44:10.663Z,979.50
2022-09-11T10:45:10.593Z,979.49
2022-09-11T10:46:10.553Z,979.49
2022-09-11T10:47:10.438Z,979.47
2022-09-11T10:48:10.358Z,979.49
2022-09-11T10:49:10.280Z,979.49
2022-09-11T10:50:10.208Z,979.47
2022-09-11T10:51:10.132Z,979.47
2022-09-11T10:52:10.055Z,979.47
2022-09-11T10:53:09.979Z,979.46
2022-09-11T10:54:09.900Z,979.50
2022-09-11T10:55:09.830Z,979.51
2022-09-11T10:56:09.751Z,979.50
2022-09-11T10:57:09.679Z,979.52
2022-09-11T10:58:09.599Z,979.50
2022-09-11T10:59:09.528Z,979.57
2022-09-11T11:00:09.457Z,979.52
2022-09-11T11:01:09.395Z,979.57
2022-09-11T11:02:09.317Z,979.55
2022-09-11T11:03:09.228Z,979.59
2022-09-11T11:04:12.178Z,979.57
2022-09-11T11:05:09.072Z,979.59
2022-09-11T11:06:08.997Z,979.55
2022-09-11T11:07:08.919Z,979.55
2022-09-11T11:08:08.845Z,979.56
2022-09-11T11:09:08.771Z,979.57
2022-09-11T11:10:08.691Z,979.58
2022-09-11T11:11:08.622Z,979.57
2022-09-11T11:12:08.542Z,979.56
2022-09-11T11:13:08.469Z,979.54
2022-09-11T11:14:08.391Z,979.53
2022-09-11T11:15:08.321Z,979.53
2022-09-11T11:16:08.285Z,979.49
2022-09-11T11:17:08.168Z,979.51
2022-09-11T11:18:08.089Z,979.52
2022-09-11T11:19:08.028Z,979.55
2022-09-11T11:20:07.952Z,979.57
2022-09-11T11:21:07.870Z,979.59
2022-09-11T11:22:07.789Z,979.53
2022-09-11T11:23:07.719Z,979.56
2022-09-11T11:24:07.640Z,979.53
2022-09-11T11:25:07.567Z,979.57
2022-09-11T11:26:07.489Z,979.56
2022-09-11T11:27:07.416Z,979.55
2022-09-11T11:28:07.342Z,979.56
2022-09-11T11:29:07.268Z,979.54
2022-09-11T11:30:07.193Z,979.51
2022-09-11T11:31:07.165Z,979.53
2022-09-11T11:32:07.045Z,979.56
2022-09-11T11:33:06.972Z,979.54
2022-09-11T11:34:06.889Z,979.52
2022-09-11T11:35:06.819Z,979.54
2022-09-11T11:36:06.744Z,979.55
2022-09-11T11:37:06.666Z,979.58
2022-09-11T11:38:06.591Z,979.58
2022-09-11T11:39:06.519Z,979.63
2022-09-11T11:40:06.489Z,979.60
2022-09-11T11:41:06.368Z,979.59
2022-09-11T11:42:06.287Z,979.55
2022-09-11T11:43:06.215Z,979.62
2022-09-11T11:44:06.146Z,979.60
2022-09-11T11:45:06.067Z,979.61
2022-09-11T11:46:06.034Z,979.60
2022-09-11T11:47:05.920Z,979.57
2022-09-11T11:48:05.846Z,979.58
2022-09-11T11:49:05.770Z,979.58
2022-09-11T11:50:05.689Z,979.60
2022-09-11T11:51:05.625Z,979.63
2022-09-11T11:52:05.543Z,979.60
2022-09-11T11:53:05.482Z,979.62
2022-09-11T11:54:05.395Z,979.65
2022-09-11T11:55:05.315Z,979.65
2022-09-11T11:56:05.238Z,979.65
2022-09-11T11:57:05.175Z,979.62
2022-09-11T11:58:05.097Z,979.65
2022-09-11T11:59:05.016Z,979.68
2022-09-11T12:00:04.941Z,979.67
2022-09-11T12:01:04.869Z,979.64
2022-09-11T12:02:04.800Z,979.67
2022-09-11T12:03:04.718Z,979.71
2022-09-11T12:04:04.644Z,979.72
2022-09-11T12:05:04.572Z,979.67
2022-09-11T12:06:04.493Z,979.75
2022-09-11T12:07:04.420Z,979.72
2022-09-11T12:08:04.342Z,979.72
2022-09-11T12:09:04.268Z,979.70
2022-09-11T12:10:04.198Z,979.71
2022-09-11T12:11:04.120Z,979.71
2022-09-11T12:12:04.042Z,979.76
2022-09-11T12:13:03.974Z,979.72
2022-09-11T12:14:03.899Z,979.72
2022-09-11T12:15:03.822Z,979.74
2022-09-11T12:16:03.933Z,979.70
2022-09-11T12:17:03.673Z,979.69
2022-09-11T12:18:03.601Z,979.69
2022-09-11T12:19:03.523Z,979.68
2022-09-11T12:20:03.450Z,979.68
2022-09-11T12:21:03.375Z,979.67
2022-09-11T12:22:03.298Z,979.63
2022-09-11T12:23:03.226Z,979.63
2022-09-11T12:24:03.150Z,979.65
2022-09-11T12:25:03.073Z,979.60
2022-09-11T12:26:02.999Z,979.60
2022-09-11T12:27:02.931Z,979.59